VKG482 ESSP-LGSA
Flight info
| Callsign | VKG482 |
|---|---|
| Flight time | 3h 33m |
| Altitude | 34000 |
| Route | PELUP L87 VIBAR DCT PENOR/N0450F350 DCT BABKO DCT BUDOP DCT LOMOS DCT NIKTI DCT KOROS/N0445F360 UG33 KEA/N0442F350 UL617 MIL UJ56 RESTI J56 RUSOS |
| Aircraft | A321/M-SDE2E3FGHIJ1RWXYZ/LB2 |
Departure
| Time | 2026-05-07 09:29 |
|---|---|
| Airport | Norrköping Airport (ESSP) |
Arrival
| Time | 2026-05-07 13:02 |
|---|---|
| Airport | Chania International Airport (LGSA) |
| Time | Latitude | Longitude | Altitude | Speed | Heading |
|---|---|---|---|---|---|
| 2026-05-07 09:03 | 58.58412 | 16.23347 | 25 ft | 0 kts | 217° |
| 2026-05-07 09:25 | 58.58410 | 16.23344 | 27 ft | 2 kts | 223° |
| 2026-05-07 09:26 | 58.58415 | 16.23302 | 26 ft | 6 kts | 308° |
| 2026-05-07 09:26 | 58.58446 | 16.23252 | 25 ft | 5 kts | 330° |
| 2026-05-07 09:26 | 58.58478 | 16.23235 | 24 ft | 4 kts | 351° |
| 2026-05-07 09:26 | 58.58508 | 16.23236 | 24 ft | 5 kts | 4° |
| 2026-05-07 09:27 | 58.58548 | 16.23241 | 22 ft | 7 kts | 3° |
| 2026-05-07 09:27 | 58.58602 | 16.23219 | 18 ft | 4 kts | 2° |
| 2026-05-07 09:27 | 58.58610 | 16.23263 | 19 ft | 0 kts | 90° |
| 2026-05-07 09:28 | 58.58610 | 16.23275 | 19 ft | 9 kts | 90° |
| 2026-05-07 09:28 | 58.58605 | 16.23931 | 18 ft | 87 kts | 91° |
| 2026-05-07 09:29 | 58.58592 | 16.25479 | 26 ft | 143 kts | 92° |
| 2026-05-07 09:29 | 58.58573 | 16.27459 | 551 ft | 145 kts | 90° |
| 2026-05-07 09:29 | 58.58565 | 16.29400 | 1246 ft | 146 kts | 93° |
| 2026-05-07 09:29 | 58.58500 | 16.31344 | 1880 ft | 150 kts | 107° |
| 2026-05-07 09:30 | 58.57853 | 16.33006 | 2224 ft | 166 kts | 147° |
| 2026-05-07 09:30 | 58.56708 | 16.33725 | 2389 ft | 185 kts | 171° |
| 2026-05-07 09:30 | 58.55350 | 16.34136 | 2558 ft | 209 kts | 172° |
| 2026-05-07 09:30 | 58.53827 | 16.34587 | 2756 ft | 234 kts | 172° |
| 2026-05-07 09:31 | 58.52144 | 16.35087 | 3235 ft | 251 kts | 172° |
| 2026-05-07 09:31 | 58.50402 | 16.35608 | 3964 ft | 256 kts | 172° |
| 2026-05-07 09:31 | 58.48627 | 16.36148 | 4738 ft | 260 kts | 172° |
| 2026-05-07 09:31 | 58.46825 | 16.36699 | 5480 ft | 265 kts | 172° |
| 2026-05-07 09:32 | 58.44990 | 16.37260 | 6230 ft | 269 kts | 172° |
| 2026-05-07 09:32 | 58.43128 | 16.37830 | 6940 ft | 273 kts | 172° |
| 2026-05-07 09:32 | 58.41242 | 16.38409 | 7640 ft | 277 kts | 172° |
| 2026-05-07 09:32 | 58.39322 | 16.38994 | 8295 ft | 282 kts | 173° |
| 2026-05-07 09:33 | 58.37371 | 16.39581 | 9010 ft | 285 kts | 173° |
| 2026-05-07 09:33 | 58.35402 | 16.40174 | 9740 ft | 288 kts | 173° |
| 2026-05-07 09:33 | 58.33412 | 16.40773 | 10350 ft | 294 kts | 173° |
| 2026-05-07 09:33 | 58.31311 | 16.41398 | 10493 ft | 316 kts | 173° |
| 2026-05-07 09:34 | 58.29066 | 16.42064 | 10626 ft | 337 kts | 173° |
| 2026-05-07 09:34 | 58.26705 | 16.42769 | 11017 ft | 347 kts | 173° |
| 2026-05-07 09:34 | 58.24304 | 16.43495 | 11607 ft | 352 kts | 173° |
| 2026-05-07 09:34 | 58.21868 | 16.44234 | 12197 ft | 356 kts | 173° |
| 2026-05-07 09:35 | 58.19409 | 16.44977 | 12819 ft | 360 kts | 173° |
| 2026-05-07 09:35 | 58.16927 | 16.45721 | 13459 ft | 363 kts | 173° |
| 2026-05-07 09:35 | 58.14420 | 16.46466 | 14078 ft | 366 kts | 173° |
| 2026-05-07 09:35 | 58.11893 | 16.47214 | 14647 ft | 369 kts | 174° |
| 2026-05-07 09:36 | 58.09348 | 16.47963 | 15223 ft | 371 kts | 174° |
| 2026-05-07 09:36 | 58.06785 | 16.48719 | 15804 ft | 374 kts | 174° |
| 2026-05-07 09:36 | 58.04213 | 16.49480 | 16377 ft | 376 kts | 174° |
| 2026-05-07 09:36 | 58.01619 | 16.50248 | 16935 ft | 378 kts | 174° |
| 2026-05-07 09:37 | 57.99014 | 16.51020 | 17509 ft | 380 kts | 174° |
| 2026-05-07 09:37 | 57.96389 | 16.51798 | 18061 ft | 383 kts | 174° |
| 2026-05-07 09:37 | 57.93754 | 16.52580 | 18536 ft | 385 kts | 175° |
| 2026-05-07 09:37 | 57.91100 | 16.53363 | 18987 ft | 387 kts | 175° |
| 2026-05-07 09:38 | 57.88426 | 16.54148 | 19445 ft | 390 kts | 175° |
| 2026-05-07 09:38 | 57.85739 | 16.54933 | 19908 ft | 392 kts | 175° |
| 2026-05-07 09:38 | 57.83040 | 16.55722 | 20354 ft | 394 kts | 175° |
| 2026-05-07 09:38 | 57.80322 | 16.56517 | 20815 ft | 396 kts | 175° |
| 2026-05-07 09:39 | 57.77594 | 16.57311 | 21260 ft | 398 kts | 175° |
| 2026-05-07 09:39 | 57.74848 | 16.58108 | 21693 ft | 400 kts | 175° |
| 2026-05-07 09:39 | 57.72093 | 16.58907 | 22162 ft | 402 kts | 176° |
| 2026-05-07 09:39 | 57.69327 | 16.59707 | 22607 ft | 403 kts | 176° |
| 2026-05-07 09:40 | 57.66549 | 16.60511 | 23037 ft | 405 kts | 176° |
| 2026-05-07 09:40 | 57.63751 | 16.61322 | 23463 ft | 408 kts | 176° |
| 2026-05-07 09:40 | 57.60943 | 16.62135 | 23841 ft | 410 kts | 176° |
| 2026-05-07 09:40 | 57.58121 | 16.62951 | 24194 ft | 411 kts | 176° |
| 2026-05-07 09:41 | 57.55287 | 16.63766 | 24545 ft | 413 kts | 176° |
| 2026-05-07 09:41 | 57.52445 | 16.64579 | 24886 ft | 415 kts | 176° |
| 2026-05-07 09:41 | 57.49585 | 16.65396 | 25231 ft | 416 kts | 176° |
| 2026-05-07 09:41 | 57.46717 | 16.66217 | 25561 ft | 418 kts | 176° |
| 2026-05-07 09:42 | 57.43873 | 16.67030 | 25887 ft | 420 kts | 176° |
| 2026-05-07 09:42 | 57.40985 | 16.67857 | 26222 ft | 421 kts | 176° |
| 2026-05-07 09:42 | 57.38046 | 16.68699 | 26553 ft | 423 kts | 176° |
| 2026-05-07 09:42 | 57.35133 | 16.69530 | 26852 ft | 424 kts | 176° |
| 2026-05-07 09:43 | 57.32251 | 16.70351 | 27182 ft | 426 kts | 176° |
| 2026-05-07 09:43 | 57.29315 | 16.71187 | 27494 ft | 427 kts | 176° |
| 2026-05-07 09:43 | 57.26374 | 16.72025 | 27813 ft | 429 kts | 176° |
| 2026-05-07 09:43 | 57.23416 | 16.72868 | 28111 ft | 430 kts | 176° |
| 2026-05-07 09:44 | 57.20454 | 16.73707 | 28397 ft | 432 kts | 176° |
| 2026-05-07 09:44 | 57.17476 | 16.74548 | 28678 ft | 434 kts | 176° |
| 2026-05-07 09:44 | 57.14490 | 16.75388 | 28962 ft | 435 kts | 176° |
| 2026-05-07 09:44 | 57.11490 | 16.76234 | 29231 ft | 437 kts | 176° |
| 2026-05-07 09:45 | 57.08482 | 16.77083 | 29483 ft | 438 kts | 176° |
| 2026-05-07 09:45 | 57.05469 | 16.77928 | 29811 ft | 438 kts | 176° |
| 2026-05-07 09:45 | 57.02461 | 16.78767 | 30210 ft | 436 kts | 176° |
| 2026-05-07 09:45 | 56.99464 | 16.79607 | 30557 ft | 435 kts | 176° |
| 2026-05-07 09:46 | 56.96478 | 16.80444 | 30880 ft | 434 kts | 176° |
| 2026-05-07 09:46 | 56.93496 | 16.81277 | 31189 ft | 433 kts | 176° |
| 2026-05-07 09:46 | 56.90520 | 16.82107 | 31483 ft | 433 kts | 176° |
| 2026-05-07 09:46 | 56.87540 | 16.82933 | 31783 ft | 433 kts | 176° |
| 2026-05-07 09:47 | 56.84566 | 16.83754 | 32081 ft | 432 kts | 176° |
| 2026-05-07 09:47 | 56.81595 | 16.84576 | 32375 ft | 432 kts | 176° |
| 2026-05-07 09:47 | 56.78623 | 16.85396 | 32683 ft | 432 kts | 176° |
| 2026-05-07 09:47 | 56.75657 | 16.86213 | 32964 ft | 431 kts | 176° |
| 2026-05-07 09:48 | 56.72695 | 16.87025 | 33255 ft | 430 kts | 176° |
| 2026-05-07 09:48 | 56.69733 | 16.87838 | 33544 ft | 430 kts | 176° |
| 2026-05-07 09:48 | 56.66776 | 16.88651 | 33832 ft | 430 kts | 176° |
| 2026-05-07 09:48 | 56.63820 | 16.89462 | 34039 ft | 430 kts | 176° |
| 2026-05-07 09:49 | 56.60879 | 16.90270 | 34077 ft | 426 kts | 177° |
| 2026-05-07 09:49 | 56.55035 | 16.91874 | 34073 ft | 424 kts | 177° |
| 2026-05-07 09:50 | 56.49205 | 16.93458 | 34057 ft | 423 kts | 177° |
| 2026-05-07 09:50 | 56.43379 | 16.95040 | 34074 ft | 423 kts | 176° |
| 2026-05-07 09:51 | 56.37589 | 16.96605 | 34069 ft | 424 kts | 176° |
| 2026-05-07 09:51 | 56.31758 | 16.98179 | 34067 ft | 423 kts | 177° |
| 2026-05-07 09:52 | 56.25933 | 16.99749 | 34060 ft | 423 kts | 177° |
| 2026-05-07 09:52 | 56.20109 | 17.01306 | 34056 ft | 423 kts | 177° |
| 2026-05-07 09:53 | 56.14288 | 17.02862 | 34052 ft | 422 kts | 177° |
| 2026-05-07 09:53 | 56.08477 | 17.04408 | 34056 ft | 422 kts | 177° |
| 2026-05-07 09:54 | 56.02669 | 17.05949 | 34049 ft | 422 kts | 177° |
| 2026-05-07 09:54 | 55.96859 | 17.07481 | 34055 ft | 422 kts | 177° |
| 2026-05-07 09:55 | 55.91046 | 17.09020 | 34035 ft | 422 kts | 176° |
| 2026-05-07 09:55 | 55.85241 | 17.10556 | 34039 ft | 421 kts | 176° |
| 2026-05-07 09:56 | 55.79447 | 17.12082 | 34019 ft | 421 kts | 177° |
| 2026-05-07 09:56 | 55.73659 | 17.13594 | 34037 ft | 420 kts | 177° |
| 2026-05-07 09:57 | 55.67891 | 17.15101 | 34047 ft | 419 kts | 177° |
| 2026-05-07 09:57 | 55.62146 | 17.16901 | 34027 ft | 422 kts | 171° |
| 2026-05-07 09:58 | 55.56451 | 17.19421 | 34030 ft | 422 kts | 172° |
| 2026-05-07 09:58 | 55.50797 | 17.21902 | 34039 ft | 421 kts | 172° |
| 2026-05-07 09:59 | 55.45109 | 17.24389 | 34043 ft | 421 kts | 172° |
| 2026-05-07 09:59 | 55.39424 | 17.26875 | 34043 ft | 421 kts | 172° |
| 2026-05-07 10:00 | 55.33741 | 17.29349 | 34022 ft | 421 kts | 172° |
| 2026-05-07 10:00 | 55.28054 | 17.31817 | 34042 ft | 420 kts | 172° |
| 2026-05-07 10:01 | 55.22386 | 17.34281 | 34021 ft | 420 kts | 171° |
| 2026-05-07 10:01 | 55.16722 | 17.36733 | 34027 ft | 419 kts | 172° |
| 2026-05-07 10:02 | 55.11060 | 17.39174 | 34026 ft | 419 kts | 171° |
| 2026-05-07 10:02 | 55.05400 | 17.41609 | 34026 ft | 419 kts | 172° |
| 2026-05-07 10:03 | 54.99735 | 17.44026 | 34018 ft | 419 kts | 172° |
| 2026-05-07 10:03 | 54.94064 | 17.46438 | 34024 ft | 420 kts | 171° |
| 2026-05-07 10:04 | 54.88387 | 17.48863 | 34027 ft | 420 kts | 171° |
| 2026-05-07 10:04 | 54.82709 | 17.51283 | 34032 ft | 420 kts | 171° |
| 2026-05-07 10:05 | 54.77031 | 17.53685 | 34029 ft | 420 kts | 172° |
| 2026-05-07 10:05 | 54.71357 | 17.56080 | 33992 ft | 419 kts | 172° |
| 2026-05-07 10:06 | 54.65687 | 17.58458 | 34010 ft | 419 kts | 172° |
| 2026-05-07 10:06 | 54.60017 | 17.60842 | 34018 ft | 419 kts | 172° |
| 2026-05-07 10:07 | 54.54345 | 17.63214 | 34026 ft | 419 kts | 172° |
| 2026-05-07 10:07 | 54.48672 | 17.65570 | 34016 ft | 419 kts | 172° |
| 2026-05-07 10:08 | 54.43006 | 17.67934 | 34037 ft | 419 kts | 171° |
| 2026-05-07 10:08 | 54.37354 | 17.70295 | 34039 ft | 417 kts | 171° |
| 2026-05-07 10:09 | 54.31717 | 17.72631 | 34038 ft | 416 kts | 172° |
| 2026-05-07 10:09 | 54.26085 | 17.74954 | 34026 ft | 416 kts | 172° |
| 2026-05-07 10:10 | 54.20463 | 17.77267 | 33982 ft | 415 kts | 172° |
| 2026-05-07 10:10 | 54.14845 | 17.79569 | 33990 ft | 415 kts | 172° |
| 2026-05-07 10:11 | 54.09269 | 17.81851 | 33985 ft | 415 kts | 172° |
| 2026-05-07 10:11 | 54.03654 | 17.84133 | 33992 ft | 415 kts | 172° |
| 2026-05-07 10:12 | 53.98037 | 17.86418 | 33994 ft | 415 kts | 172° |
| 2026-05-07 10:12 | 53.92424 | 17.88701 | 33982 ft | 415 kts | 172° |
| 2026-05-07 10:13 | 53.86819 | 17.90967 | 33995 ft | 414 kts | 172° |
| 2026-05-07 10:13 | 53.81218 | 17.93224 | 34002 ft | 413 kts | 172° |
| 2026-05-07 10:14 | 53.75625 | 17.95478 | 34004 ft | 413 kts | 172° |
| 2026-05-07 10:14 | 53.70044 | 17.97713 | 33962 ft | 412 kts | 172° |
| 2026-05-07 10:15 | 53.64471 | 17.99942 | 33963 ft | 411 kts | 172° |
| 2026-05-07 10:15 | 53.59850 | 18.01794 | 33988 ft | 410 kts | 172° |
| 2026-05-07 10:16 | 53.54308 | 18.04006 | 33994 ft | 409 kts | 172° |
| 2026-05-07 10:16 | 53.48783 | 18.06203 | 33986 ft | 408 kts | 172° |
| 2026-05-07 10:17 | 53.43255 | 18.08387 | 33986 ft | 408 kts | 172° |
| 2026-05-07 10:17 | 53.37741 | 18.10567 | 33980 ft | 407 kts | 172° |
| 2026-05-07 10:18 | 53.32230 | 18.12738 | 33981 ft | 407 kts | 172° |
| 2026-05-07 10:18 | 53.26724 | 18.14895 | 33973 ft | 406 kts | 172° |
| 2026-05-07 10:19 | 53.21229 | 18.17046 | 33972 ft | 405 kts | 172° |
| 2026-05-07 10:19 | 53.15735 | 18.19201 | 33960 ft | 405 kts | 172° |
| 2026-05-07 10:20 | 53.10263 | 18.21336 | 33976 ft | 404 kts | 172° |
| 2026-05-07 10:20 | 53.04789 | 18.23458 | 34117 ft | 405 kts | 172° |
| 2026-05-07 10:20 | 53.02045 | 18.24520 | 34329 ft | 405 kts | 172° |
| 2026-05-07 10:21 | 52.99332 | 18.25572 | 34521 ft | 406 kts | 172° |
| 2026-05-07 10:21 | 52.96578 | 18.26639 | 34708 ft | 407 kts | 172° |
| 2026-05-07 10:21 | 52.93814 | 18.27711 | 34891 ft | 408 kts | 172° |
| 2026-05-07 10:22 | 52.88260 | 18.29852 | 34974 ft | 410 kts | 172° |
| 2026-05-07 10:22 | 52.82707 | 18.31995 | 34972 ft | 410 kts | 172° |
| 2026-05-07 10:23 | 52.77153 | 18.34129 | 34967 ft | 410 kts | 172° |
| 2026-05-07 10:23 | 52.71608 | 18.36252 | 34967 ft | 409 kts | 172° |
| 2026-05-07 10:24 | 52.66063 | 18.38357 | 34955 ft | 409 kts | 172° |
| 2026-05-07 10:24 | 52.60521 | 18.40474 | 34960 ft | 409 kts | 172° |
| 2026-05-07 10:25 | 52.54975 | 18.42586 | 34950 ft | 409 kts | 172° |
| 2026-05-07 10:25 | 52.49427 | 18.44685 | 34970 ft | 409 kts | 172° |
| 2026-05-07 10:26 | 52.43880 | 18.46771 | 34973 ft | 409 kts | 172° |
| 2026-05-07 10:26 | 52.38332 | 18.48847 | 34965 ft | 409 kts | 172° |
| 2026-05-07 10:27 | 52.32787 | 18.50941 | 34970 ft | 409 kts | 172° |
| 2026-05-07 10:27 | 52.27243 | 18.53028 | 34970 ft | 409 kts | 172° |
| 2026-05-07 10:28 | 52.21734 | 18.55088 | 34969 ft | 409 kts | 172° |
| 2026-05-07 10:28 | 52.16195 | 18.57146 | 34948 ft | 408 kts | 172° |
| 2026-05-07 10:29 | 52.10655 | 18.59208 | 34949 ft | 408 kts | 172° |
| 2026-05-07 10:29 | 52.05116 | 18.61257 | 34952 ft | 408 kts | 172° |
| 2026-05-07 10:30 | 51.96801 | 18.64341 | 34964 ft | 408 kts | 172° |
| 2026-05-07 10:30 | 51.91263 | 18.66394 | 34961 ft | 408 kts | 172° |
| 2026-05-07 10:31 | 51.85730 | 18.68428 | 34960 ft | 407 kts | 172° |
| 2026-05-07 10:31 | 51.80199 | 18.70457 | 34960 ft | 407 kts | 172° |
| 2026-05-07 10:32 | 51.74673 | 18.72480 | 34951 ft | 407 kts | 172° |
| 2026-05-07 10:32 | 51.69150 | 18.74483 | 34932 ft | 407 kts | 172° |
| 2026-05-07 10:33 | 51.63636 | 18.76498 | 34940 ft | 406 kts | 172° |
| 2026-05-07 10:33 | 51.58125 | 18.78497 | 34945 ft | 406 kts | 172° |
| 2026-05-07 10:34 | 51.52611 | 18.80499 | 34945 ft | 406 kts | 172° |
| 2026-05-07 10:34 | 51.47103 | 18.82499 | 34940 ft | 406 kts | 172° |
| 2026-05-07 10:35 | 51.41601 | 18.84481 | 34946 ft | 405 kts | 172° |
| 2026-05-07 10:35 | 51.36104 | 18.86456 | 34948 ft | 405 kts | 172° |
| 2026-05-07 10:36 | 51.30645 | 18.88413 | 34944 ft | 405 kts | 172° |
| 2026-05-07 10:36 | 51.25153 | 18.90382 | 34943 ft | 404 kts | 172° |
| 2026-05-07 10:37 | 51.19667 | 18.92335 | 34930 ft | 404 kts | 172° |
| 2026-05-07 10:37 | 51.14177 | 18.94288 | 34927 ft | 404 kts | 172° |
| 2026-05-07 10:38 | 51.08693 | 18.96235 | 34925 ft | 404 kts | 172° |
| 2026-05-07 10:38 | 51.03206 | 18.98183 | 34927 ft | 404 kts | 172° |
| 2026-05-07 10:39 | 50.97722 | 19.00122 | 34925 ft | 404 kts | 172° |
| 2026-05-07 10:39 | 50.92239 | 19.02055 | 34924 ft | 404 kts | 172° |
| 2026-05-07 10:40 | 50.86761 | 19.03984 | 34920 ft | 403 kts | 172° |
| 2026-05-07 10:40 | 50.81282 | 19.05904 | 34925 ft | 403 kts | 172° |
| 2026-05-07 10:41 | 50.75839 | 19.07815 | 34896 ft | 403 kts | 172° |
| 2026-05-07 10:41 | 50.70365 | 19.09735 | 34894 ft | 403 kts | 172° |
| 2026-05-07 10:42 | 50.64885 | 19.11653 | 34898 ft | 403 kts | 172° |
| 2026-05-07 10:42 | 50.59407 | 19.13560 | 34924 ft | 404 kts | 172° |
| 2026-05-07 10:43 | 50.53920 | 19.15458 | 34929 ft | 404 kts | 172° |
| 2026-05-07 10:43 | 50.48436 | 19.17343 | 34935 ft | 403 kts | 172° |
| 2026-05-07 10:44 | 50.42953 | 19.19241 | 34934 ft | 404 kts | 172° |
| 2026-05-07 10:44 | 50.37461 | 19.21137 | 34933 ft | 404 kts | 172° |
| 2026-05-07 10:45 | 50.31972 | 19.23020 | 34935 ft | 404 kts | 172° |
| 2026-05-07 10:45 | 50.26473 | 19.24896 | 34907 ft | 405 kts | 172° |
| 2026-05-07 10:46 | 50.20961 | 19.26780 | 34903 ft | 406 kts | 172° |
| 2026-05-07 10:46 | 50.15442 | 19.28665 | 34909 ft | 406 kts | 172° |
| 2026-05-07 10:47 | 50.09914 | 19.30548 | 34915 ft | 407 kts | 172° |
| 2026-05-07 10:47 | 50.04386 | 19.32435 | 34914 ft | 407 kts | 172° |
| 2026-05-07 10:48 | 49.98851 | 19.34304 | 34922 ft | 407 kts | 172° |
| 2026-05-07 10:48 | 49.93318 | 19.36167 | 34916 ft | 407 kts | 172° |
| 2026-05-07 10:49 | 49.87781 | 19.38031 | 34929 ft | 407 kts | 172° |
| 2026-05-07 10:49 | 49.82258 | 19.39891 | 34901 ft | 407 kts | 172° |
| 2026-05-07 10:50 | 49.76718 | 19.41756 | 34912 ft | 407 kts | 172° |
| 2026-05-07 10:50 | 49.71178 | 19.43610 | 34920 ft | 407 kts | 172° |
| 2026-05-07 10:51 | 49.65617 | 19.45465 | 34937 ft | 410 kts | 173° |
| 2026-05-07 10:51 | 49.60114 | 19.47747 | 34944 ft | 414 kts | 162° |
| 2026-05-07 10:52 | 49.54881 | 19.51585 | 34937 ft | 418 kts | 159° |
| 2026-05-07 10:52 | 49.49629 | 19.55444 | 34946 ft | 417 kts | 160° |
| 2026-05-07 10:53 | 49.44392 | 19.59296 | 34913 ft | 416 kts | 160° |
| 2026-05-07 10:53 | 49.39213 | 19.63083 | 34918 ft | 417 kts | 161° |
| 2026-05-07 10:54 | 49.33915 | 19.66945 | 34935 ft | 419 kts | 160° |
| 2026-05-07 10:54 | 49.28689 | 19.70765 | 34941 ft | 419 kts | 160° |
| 2026-05-07 10:55 | 49.23419 | 19.74613 | 34949 ft | 420 kts | 160° |
| 2026-05-07 10:55 | 49.18142 | 19.78441 | 34950 ft | 421 kts | 160° |
| 2026-05-07 10:56 | 49.12804 | 19.82301 | 34941 ft | 423 kts | 160° |
| 2026-05-07 10:56 | 49.07524 | 19.86111 | 34962 ft | 422 kts | 160° |
| 2026-05-07 10:57 | 49.02202 | 19.89951 | 34976 ft | 423 kts | 160° |
| 2026-05-07 10:57 | 48.96874 | 19.93767 | 34970 ft | 424 kts | 160° |
| 2026-05-07 10:58 | 48.91552 | 19.97591 | 34972 ft | 423 kts | 160° |
| 2026-05-07 10:58 | 48.86224 | 20.01394 | 34970 ft | 423 kts | 161° |
| 2026-05-07 10:59 | 48.80896 | 20.05191 | 34952 ft | 423 kts | 160° |
| 2026-05-07 10:59 | 48.75559 | 20.08995 | 34951 ft | 424 kts | 161° |
| 2026-05-07 11:00 | 48.70199 | 20.12795 | 34959 ft | 425 kts | 160° |
| 2026-05-07 11:00 | 48.64851 | 20.16588 | 34960 ft | 423 kts | 161° |
| 2026-05-07 11:01 | 48.59527 | 20.20374 | 34978 ft | 424 kts | 160° |
| 2026-05-07 11:01 | 48.54165 | 20.24147 | 34977 ft | 426 kts | 161° |
| 2026-05-07 11:02 | 48.48778 | 20.27917 | 34951 ft | 425 kts | 161° |
| 2026-05-07 11:02 | 48.43402 | 20.31688 | 34953 ft | 426 kts | 160° |
| 2026-05-07 11:03 | 48.38012 | 20.35471 | 34963 ft | 428 kts | 160° |
| 2026-05-07 11:03 | 48.33526 | 20.38619 | 34965 ft | 428 kts | 160° |
| 2026-05-07 11:04 | 48.28131 | 20.42378 | 34974 ft | 427 kts | 160° |
| 2026-05-07 11:04 | 48.22731 | 20.46116 | 34976 ft | 427 kts | 160° |
| 2026-05-07 11:05 | 48.17331 | 20.49859 | 34954 ft | 427 kts | 161° |
| 2026-05-07 11:05 | 48.11937 | 20.53601 | 34960 ft | 428 kts | 160° |
| 2026-05-07 11:06 | 48.06527 | 20.57339 | 34973 ft | 429 kts | 161° |
| 2026-05-07 11:06 | 48.01116 | 20.61055 | 34976 ft | 428 kts | 161° |
| 2026-05-07 11:07 | 47.95703 | 20.64774 | 34983 ft | 428 kts | 161° |
| 2026-05-07 11:07 | 47.90294 | 20.68487 | 34986 ft | 428 kts | 161° |
| 2026-05-07 11:08 | 47.84885 | 20.72195 | 34958 ft | 428 kts | 161° |
| 2026-05-07 11:08 | 47.79471 | 20.75897 | 34970 ft | 428 kts | 161° |
| 2026-05-07 11:09 | 47.74057 | 20.79586 | 34978 ft | 428 kts | 161° |
| 2026-05-07 11:09 | 47.68633 | 20.83269 | 34982 ft | 428 kts | 161° |
| 2026-05-07 11:10 | 47.63217 | 20.86932 | 34981 ft | 428 kts | 161° |
| 2026-05-07 11:10 | 47.57796 | 20.90600 | 34986 ft | 428 kts | 161° |
| 2026-05-07 11:11 | 47.52381 | 20.94264 | 35011 ft | 428 kts | 161° |
| 2026-05-07 11:11 | 47.46972 | 20.97911 | 35023 ft | 427 kts | 161° |
| 2026-05-07 11:12 | 47.41562 | 21.01544 | 35022 ft | 426 kts | 161° |
| 2026-05-07 11:12 | 47.36165 | 21.05158 | 35019 ft | 426 kts | 161° |
| 2026-05-07 11:13 | 47.30768 | 21.08768 | 35016 ft | 426 kts | 161° |
| 2026-05-07 11:13 | 47.25372 | 21.12365 | 35024 ft | 426 kts | 161° |
| 2026-05-07 11:14 | 47.19975 | 21.15963 | 35008 ft | 426 kts | 161° |
| 2026-05-07 11:14 | 47.14576 | 21.19555 | 35007 ft | 426 kts | 161° |
| 2026-05-07 11:15 | 47.09165 | 21.23141 | 35015 ft | 427 kts | 161° |
| 2026-05-07 11:15 | 47.03787 | 21.26691 | 35020 ft | 426 kts | 161° |
| 2026-05-07 11:16 | 46.98378 | 21.30263 | 35029 ft | 426 kts | 161° |
| 2026-05-07 11:16 | 46.92969 | 21.33828 | 35013 ft | 426 kts | 161° |
| 2026-05-07 11:17 | 46.87556 | 21.37385 | 35021 ft | 427 kts | 161° |
| 2026-05-07 11:17 | 46.82128 | 21.40932 | 35029 ft | 427 kts | 161° |
| 2026-05-07 11:18 | 46.76703 | 21.44468 | 35033 ft | 427 kts | 161° |
| 2026-05-07 11:18 | 46.71278 | 21.48015 | 35034 ft | 427 kts | 161° |
| 2026-05-07 11:19 | 46.65859 | 21.51547 | 35038 ft | 426 kts | 161° |
| 2026-05-07 11:19 | 46.60441 | 21.55065 | 35015 ft | 427 kts | 161° |
| 2026-05-07 11:20 | 46.55004 | 21.58584 | 35020 ft | 428 kts | 161° |
| 2026-05-07 11:20 | 46.49546 | 21.62100 | 35028 ft | 430 kts | 161° |
| 2026-05-07 11:21 | 46.44113 | 21.65592 | 35032 ft | 430 kts | 161° |
| 2026-05-07 11:21 | 46.38638 | 21.69106 | 35038 ft | 430 kts | 161° |
| 2026-05-07 11:22 | 46.33122 | 21.72634 | 35015 ft | 430 kts | 161° |
| 2026-05-07 11:22 | 46.27673 | 21.76116 | 35019 ft | 432 kts | 160° |
| 2026-05-07 11:23 | 46.22153 | 21.79642 | 35022 ft | 434 kts | 160° |
| 2026-05-07 11:23 | 46.16618 | 21.83172 | 35030 ft | 436 kts | 160° |
| 2026-05-07 11:24 | 46.11062 | 21.86702 | 35042 ft | 437 kts | 161° |
| 2026-05-07 11:24 | 46.05498 | 21.90223 | 35055 ft | 436 kts | 160° |
| 2026-05-07 11:25 | 45.99945 | 21.93725 | 35045 ft | 436 kts | 160° |
| 2026-05-07 11:25 | 45.94395 | 21.97236 | 35050 ft | 436 kts | 160° |
| 2026-05-07 11:26 | 45.88840 | 22.00747 | 35053 ft | 436 kts | 160° |
| 2026-05-07 11:26 | 45.83283 | 22.04228 | 35052 ft | 436 kts | 161° |
| 2026-05-07 11:27 | 45.77729 | 22.07705 | 35059 ft | 435 kts | 161° |
| 2026-05-07 11:27 | 45.72182 | 22.11180 | 35047 ft | 435 kts | 161° |
| 2026-05-07 11:28 | 45.66634 | 22.14642 | 35048 ft | 435 kts | 161° |
| 2026-05-07 11:28 | 45.61089 | 22.18095 | 35048 ft | 435 kts | 161° |
| 2026-05-07 11:29 | 45.55536 | 22.21542 | 35057 ft | 435 kts | 161° |
| 2026-05-07 11:29 | 45.49982 | 22.24983 | 35065 ft | 435 kts | 161° |
| 2026-05-07 11:30 | 45.44435 | 22.28416 | 35061 ft | 434 kts | 161° |
| 2026-05-07 11:30 | 45.38893 | 22.31836 | 35061 ft | 435 kts | 161° |
| 2026-05-07 11:31 | 45.33374 | 22.35240 | 35067 ft | 435 kts | 162° |
| 2026-05-07 11:31 | 45.27829 | 22.38654 | 35083 ft | 434 kts | 162° |
| 2026-05-07 11:32 | 45.19521 | 22.43746 | 35100 ft | 433 kts | 162° |
| 2026-05-07 11:33 | 45.13989 | 22.47126 | 35079 ft | 433 kts | 162° |
| 2026-05-07 11:33 | 45.08464 | 22.50501 | 35089 ft | 432 kts | 162° |
| 2026-05-07 11:34 | 45.02939 | 22.53869 | 35092 ft | 432 kts | 162° |
| 2026-05-07 11:34 | 44.97427 | 22.57224 | 35098 ft | 432 kts | 162° |
| 2026-05-07 11:35 | 44.91897 | 22.60566 | 35098 ft | 432 kts | 162° |
| 2026-05-07 11:35 | 44.86377 | 22.63908 | 35089 ft | 431 kts | 162° |
| 2026-05-07 11:36 | 44.80889 | 22.67221 | 35078 ft | 432 kts | 162° |
| 2026-05-07 11:36 | 44.75318 | 22.70578 | 35079 ft | 433 kts | 162° |
| 2026-05-07 11:37 | 44.69815 | 22.73894 | 35078 ft | 432 kts | 162° |
| 2026-05-07 11:37 | 44.64281 | 22.77212 | 35080 ft | 433 kts | 162° |
| 2026-05-07 11:38 | 44.58740 | 22.80527 | 35090 ft | 433 kts | 162° |
| 2026-05-07 11:38 | 44.53206 | 22.83830 | 35096 ft | 432 kts | 162° |
| 2026-05-07 11:39 | 44.47665 | 22.87134 | 35100 ft | 433 kts | 162° |
| 2026-05-07 11:39 | 44.42126 | 22.90425 | 35095 ft | 432 kts | 162° |
| 2026-05-07 11:40 | 44.36584 | 22.93714 | 35097 ft | 432 kts | 162° |
| 2026-05-07 11:40 | 44.31048 | 22.96996 | 35103 ft | 432 kts | 162° |
| 2026-05-07 11:41 | 44.25505 | 23.00277 | 35071 ft | 433 kts | 162° |
| 2026-05-07 11:41 | 44.19949 | 23.03560 | 35071 ft | 434 kts | 162° |
| 2026-05-07 11:42 | 44.14383 | 23.06838 | 35069 ft | 435 kts | 162° |
| 2026-05-07 11:42 | 44.08811 | 23.10118 | 35080 ft | 435 kts | 162° |
| 2026-05-07 11:43 | 44.03230 | 23.13384 | 35072 ft | 435 kts | 162° |
| 2026-05-07 11:43 | 43.97658 | 23.16648 | 35066 ft | 435 kts | 162° |
| 2026-05-07 11:44 | 43.92068 | 23.19920 | 35062 ft | 436 kts | 162° |
| 2026-05-07 11:44 | 43.86471 | 23.23179 | 35070 ft | 436 kts | 162° |
| 2026-05-07 11:45 | 43.80827 | 23.26005 | 35075 ft | 431 kts | 169° |
| 2026-05-07 11:45 | 43.75055 | 23.28284 | 35076 ft | 432 kts | 169° |
| 2026-05-07 11:46 | 43.69275 | 23.30560 | 35064 ft | 432 kts | 169° |
| 2026-05-07 11:46 | 43.63486 | 23.32835 | 35069 ft | 433 kts | 169° |
| 2026-05-07 11:47 | 43.57695 | 23.35119 | 35074 ft | 433 kts | 169° |
| 2026-05-07 11:47 | 43.51904 | 23.37395 | 35070 ft | 433 kts | 169° |
| 2026-05-07 11:48 | 43.46102 | 23.39660 | 35068 ft | 434 kts | 168° |
| 2026-05-07 11:48 | 43.40301 | 23.41925 | 35060 ft | 434 kts | 168° |
| 2026-05-07 11:49 | 43.34493 | 23.44188 | 35061 ft | 434 kts | 168° |
| 2026-05-07 11:49 | 43.28680 | 23.46449 | 35060 ft | 435 kts | 168° |
| 2026-05-07 11:50 | 43.22849 | 23.48714 | 35066 ft | 436 kts | 168° |
| 2026-05-07 11:50 | 43.17986 | 23.50598 | 35070 ft | 437 kts | 168° |
| 2026-05-07 11:51 | 43.12126 | 23.52866 | 35078 ft | 437 kts | 168° |
| 2026-05-07 11:51 | 43.06262 | 23.55132 | 35066 ft | 438 kts | 169° |
| 2026-05-07 11:52 | 43.00405 | 23.57383 | 35078 ft | 439 kts | 169° |
| 2026-05-07 11:52 | 42.94522 | 23.59648 | 35087 ft | 440 kts | 169° |
| 2026-05-07 11:53 | 42.88628 | 23.61917 | 35095 ft | 440 kts | 169° |
| 2026-05-07 11:53 | 42.82734 | 23.64177 | 35098 ft | 440 kts | 169° |
| 2026-05-07 11:54 | 42.76833 | 23.66430 | 35115 ft | 440 kts | 168° |
| 2026-05-07 11:54 | 42.70934 | 23.68680 | 35130 ft | 440 kts | 168° |
| 2026-05-07 11:55 | 42.65053 | 23.70927 | 35123 ft | 439 kts | 168° |
| 2026-05-07 11:55 | 42.59171 | 23.73156 | 35118 ft | 439 kts | 168° |
| 2026-05-07 11:56 | 42.53316 | 23.75364 | 35113 ft | 436 kts | 169° |
| 2026-05-07 11:56 | 42.47456 | 23.77581 | 35096 ft | 438 kts | 168° |
| 2026-05-07 11:57 | 42.41583 | 23.79806 | 35089 ft | 439 kts | 168° |
| 2026-05-07 11:57 | 42.35702 | 23.82036 | 35091 ft | 439 kts | 168° |
| 2026-05-07 11:58 | 42.29808 | 23.84272 | 35101 ft | 440 kts | 169° |
| 2026-05-07 11:58 | 42.23884 | 23.86503 | 35108 ft | 443 kts | 168° |
| 2026-05-07 11:59 | 42.17936 | 23.88741 | 35113 ft | 443 kts | 169° |
| 2026-05-07 11:59 | 42.12026 | 23.90934 | 35123 ft | 443 kts | 169° |
| 2026-05-07 12:00 | 42.06084 | 23.93132 | 35124 ft | 443 kts | 168° |
| 2026-05-07 12:00 | 42.00148 | 23.95346 | 35123 ft | 442 kts | 168° |
| 2026-05-07 12:01 | 41.94227 | 23.97547 | 35125 ft | 442 kts | 168° |
| 2026-05-07 12:01 | 41.88303 | 23.99746 | 35127 ft | 442 kts | 168° |
| 2026-05-07 12:02 | 41.82380 | 24.01956 | 35118 ft | 442 kts | 169° |
| 2026-05-07 12:02 | 41.76428 | 24.04165 | 35137 ft | 445 kts | 169° |
| 2026-05-07 12:03 | 41.70462 | 24.06353 | 35138 ft | 444 kts | 168° |
| 2026-05-07 12:03 | 41.64513 | 24.08534 | 35130 ft | 443 kts | 169° |
| 2026-05-07 12:04 | 41.58556 | 24.10731 | 35117 ft | 444 kts | 168° |
| 2026-05-07 12:04 | 41.52602 | 24.12909 | 35124 ft | 444 kts | 169° |
| 2026-05-07 12:05 | 41.46613 | 24.14936 | 35135 ft | 444 kts | 170° |
| 2026-05-07 12:05 | 41.43593 | 24.15617 | 35125 ft | 438 kts | 181° |
| 2026-05-07 12:05 | 41.40549 | 24.15761 | 35123 ft | 436 kts | 183° |
| 2026-05-07 12:06 | 41.34506 | 24.16023 | 35144 ft | 438 kts | 182° |
| 2026-05-07 12:06 | 41.28401 | 24.16293 | 35134 ft | 440 kts | 182° |
| 2026-05-07 12:07 | 41.22296 | 24.16546 | 35140 ft | 439 kts | 182° |
| 2026-05-07 12:07 | 41.16196 | 24.16800 | 35134 ft | 440 kts | 182° |
| 2026-05-07 12:08 | 41.10078 | 24.17078 | 35119 ft | 440 kts | 181° |
| 2026-05-07 12:08 | 41.03949 | 24.17346 | 35149 ft | 441 kts | 182° |
| 2026-05-07 12:09 | 40.97824 | 24.17590 | 35148 ft | 440 kts | 182° |
| 2026-05-07 12:09 | 40.91706 | 24.17840 | 35150 ft | 440 kts | 182° |
| 2026-05-07 12:10 | 40.85601 | 24.18102 | 35152 ft | 439 kts | 182° |
| 2026-05-07 12:10 | 40.79488 | 24.18362 | 35145 ft | 439 kts | 182° |
| 2026-05-07 12:11 | 40.73384 | 24.18619 | 35146 ft | 439 kts | 182° |
| 2026-05-07 12:11 | 40.67279 | 24.18878 | 35150 ft | 439 kts | 182° |
| 2026-05-07 12:12 | 40.61173 | 24.19145 | 35151 ft | 439 kts | 182° |
| 2026-05-07 12:12 | 40.55059 | 24.19401 | 35144 ft | 440 kts | 182° |
| 2026-05-07 12:13 | 40.48933 | 24.19657 | 35144 ft | 441 kts | 182° |
| 2026-05-07 12:13 | 40.42803 | 24.19912 | 35147 ft | 440 kts | 182° |
| 2026-05-07 12:14 | 40.36680 | 24.20172 | 35138 ft | 441 kts | 182° |
| 2026-05-07 12:14 | 40.30548 | 24.20432 | 35139 ft | 441 kts | 182° |
| 2026-05-07 12:15 | 40.24414 | 24.20691 | 35143 ft | 441 kts | 182° |
| 2026-05-07 12:15 | 40.18274 | 24.20941 | 35145 ft | 441 kts | 182° |
| 2026-05-07 12:16 | 40.12136 | 24.21191 | 35151 ft | 442 kts | 182° |
| 2026-05-07 12:16 | 40.05994 | 24.21450 | 35151 ft | 441 kts | 182° |
| 2026-05-07 12:17 | 39.99855 | 24.21708 | 35152 ft | 441 kts | 182° |
| 2026-05-07 12:17 | 39.93759 | 24.21960 | 35139 ft | 441 kts | 182° |
| 2026-05-07 12:18 | 39.87623 | 24.22212 | 35148 ft | 441 kts | 183° |
| 2026-05-07 12:18 | 39.81444 | 24.22465 | 35148 ft | 441 kts | 182° |
| 2026-05-07 12:19 | 39.75298 | 24.22721 | 35135 ft | 442 kts | 182° |
| 2026-05-07 12:19 | 39.69156 | 24.22973 | 35131 ft | 442 kts | 182° |
| 2026-05-07 12:20 | 39.63002 | 24.23232 | 35125 ft | 443 kts | 182° |
| 2026-05-07 12:20 | 39.56841 | 24.23494 | 35128 ft | 443 kts | 182° |
| 2026-05-07 12:21 | 39.50675 | 24.23741 | 35133 ft | 444 kts | 182° |
| 2026-05-07 12:21 | 39.44544 | 24.23981 | 35140 ft | 444 kts | 182° |
| 2026-05-07 12:22 | 39.38329 | 24.24237 | 35138 ft | 444 kts | 182° |
| 2026-05-07 12:22 | 39.32191 | 24.24493 | 35131 ft | 444 kts | 182° |
| 2026-05-07 12:23 | 39.25973 | 24.24753 | 35134 ft | 444 kts | 182° |
| 2026-05-07 12:23 | 39.19794 | 24.24993 | 35138 ft | 444 kts | 182° |
| 2026-05-07 12:24 | 39.13655 | 24.25238 | 35133 ft | 444 kts | 182° |
| 2026-05-07 12:24 | 39.07467 | 24.25489 | 35135 ft | 445 kts | 182° |
| 2026-05-07 12:25 | 39.01281 | 24.25740 | 35133 ft | 445 kts | 182° |
| 2026-05-07 12:25 | 38.95087 | 24.25997 | 35123 ft | 446 kts | 182° |
| 2026-05-07 12:26 | 38.88875 | 24.26246 | 35117 ft | 447 kts | 182° |
| 2026-05-07 12:26 | 38.82660 | 24.26495 | 35120 ft | 447 kts | 182° |
| 2026-05-07 12:27 | 38.76440 | 24.26746 | 35117 ft | 447 kts | 182° |
| 2026-05-07 12:27 | 38.70219 | 24.26997 | 35109 ft | 448 kts | 182° |
| 2026-05-07 12:28 | 38.63982 | 24.27246 | 35115 ft | 449 kts | 182° |
| 2026-05-07 12:28 | 38.57735 | 24.27503 | 35118 ft | 449 kts | 182° |
| 2026-05-07 12:29 | 38.51482 | 24.27751 | 35102 ft | 450 kts | 183° |
| 2026-05-07 12:29 | 38.45222 | 24.27993 | 35101 ft | 451 kts | 184° |
| 2026-05-07 12:30 | 38.38927 | 24.28237 | 35105 ft | 453 kts | 184° |
| 2026-05-07 12:30 | 38.32622 | 24.28492 | 35110 ft | 454 kts | 184° |
| 2026-05-07 12:31 | 38.26303 | 24.28749 | 35101 ft | 455 kts | 185° |
| 2026-05-07 12:31 | 38.19964 | 24.28985 | 35107 ft | 456 kts | 185° |
| 2026-05-07 12:32 | 38.13606 | 24.29216 | 35112 ft | 458 kts | 185° |
| 2026-05-07 12:32 | 38.07235 | 24.29457 | 35122 ft | 458 kts | 185° |
| 2026-05-07 12:33 | 37.97672 | 24.29851 | 35138 ft | 459 kts | 185° |
| 2026-05-07 12:33 | 37.91290 | 24.30102 | 35146 ft | 459 kts | 185° |
| 2026-05-07 12:34 | 37.84950 | 24.30348 | 35136 ft | 459 kts | 185° |
| 2026-05-07 12:34 | 37.78562 | 24.30595 | 35137 ft | 460 kts | 185° |
| 2026-05-07 12:35 | 37.72168 | 24.30845 | 35142 ft | 460 kts | 185° |
| 2026-05-07 12:35 | 37.65766 | 24.31108 | 35145 ft | 460 kts | 185° |
| 2026-05-07 12:36 | 37.59366 | 24.31368 | 35131 ft | 461 kts | 185° |
| 2026-05-07 12:36 | 37.52953 | 24.31620 | 35139 ft | 461 kts | 185° |
| 2026-05-07 12:37 | 37.47574 | 24.31824 | 35153 ft | 462 kts | 185° |
| 2026-05-07 12:37 | 37.41149 | 24.32075 | 35150 ft | 462 kts | 186° |
| 2026-05-07 12:38 | 37.34725 | 24.32327 | 35152 ft | 462 kts | 185° |
| 2026-05-07 12:38 | 37.28305 | 24.32563 | 35142 ft | 462 kts | 186° |
| 2026-05-07 12:39 | 37.21852 | 24.32801 | 35135 ft | 466 kts | 186° |
| 2026-05-07 12:39 | 37.15366 | 24.33078 | 34919 ft | 468 kts | 186° |
| 2026-05-07 12:40 | 37.12105 | 24.33211 | 34175 ft | 468 kts | 185° |
| 2026-05-07 12:40 | 37.08845 | 24.33343 | 33530 ft | 468 kts | 184° |
| 2026-05-07 12:40 | 37.05598 | 24.33474 | 32952 ft | 467 kts | 184° |
| 2026-05-07 12:40 | 37.02366 | 24.33603 | 32375 ft | 462 kts | 185° |
| 2026-05-07 12:41 | 36.99159 | 24.33721 | 31794 ft | 460 kts | 184° |
| 2026-05-07 12:41 | 36.95984 | 24.33838 | 31244 ft | 454 kts | 184° |
| 2026-05-07 12:41 | 36.92874 | 24.33947 | 30676 ft | 451 kts | 185° |
| 2026-05-07 12:41 | 36.89750 | 24.34051 | 30108 ft | 447 kts | 184° |
| 2026-05-07 12:42 | 36.86656 | 24.34158 | 29516 ft | 442 kts | 184° |
| 2026-05-07 12:42 | 36.83605 | 24.34272 | 28994 ft | 436 kts | 184° |
| 2026-05-07 12:42 | 36.80592 | 24.34389 | 28456 ft | 431 kts | 183° |
| 2026-05-07 12:42 | 36.77603 | 24.34504 | 27936 ft | 427 kts | 184° |
| 2026-05-07 12:43 | 36.74654 | 24.34613 | 27436 ft | 422 kts | 184° |
| 2026-05-07 12:43 | 36.71728 | 24.34727 | 26934 ft | 419 kts | 184° |
| 2026-05-07 12:43 | 36.68827 | 24.34837 | 26348 ft | 419 kts | 184° |
| 2026-05-07 12:43 | 36.65916 | 24.34945 | 25836 ft | 416 kts | 183° |
| 2026-05-07 12:44 | 36.63039 | 24.35056 | 25373 ft | 412 kts | 183° |
| 2026-05-07 12:44 | 36.60180 | 24.35166 | 24908 ft | 409 kts | 183° |
| 2026-05-07 12:44 | 36.57349 | 24.35276 | 24453 ft | 406 kts | 183° |
| 2026-05-07 12:44 | 36.54542 | 24.35383 | 24002 ft | 402 kts | 183° |
| 2026-05-07 12:45 | 36.52654 | 24.35455 | 23670 ft | 401 kts | 183° |
| 2026-05-07 12:46 | 36.51616 | 24.35417 | 23883 ft | 365 kts | 194° |
| 2026-05-07 12:46 | 36.49203 | 24.34951 | 23812 ft | 360 kts | 190° |
| 2026-05-07 12:47 | 36.46610 | 24.34900 | 22673 ft | 383 kts | 181° |
| 2026-05-07 12:47 | 36.43946 | 24.35178 | 22159 ft | 383 kts | 178° |
| 2026-05-07 12:47 | 36.41315 | 24.35539 | 21722 ft | 379 kts | 178° |
| 2026-05-07 12:47 | 36.38701 | 24.35861 | 21276 ft | 375 kts | 179° |
| 2026-05-07 12:48 | 36.36110 | 24.36099 | 20830 ft | 372 kts | 180° |
| 2026-05-07 12:48 | 36.33532 | 24.36257 | 20374 ft | 369 kts | 182° |
| 2026-05-07 12:48 | 36.30974 | 24.36359 | 19923 ft | 367 kts | 182° |
| 2026-05-07 12:48 | 36.28428 | 24.36430 | 19476 ft | 365 kts | 182° |
| 2026-05-07 12:49 | 36.25895 | 24.36496 | 19040 ft | 364 kts | 182° |
| 2026-05-07 12:49 | 36.23367 | 24.36567 | 18595 ft | 362 kts | 182° |
| 2026-05-07 12:49 | 36.20862 | 24.36527 | 18115 ft | 358 kts | 189° |
| 2026-05-07 12:49 | 36.18437 | 24.35972 | 17687 ft | 351 kts | 196° |
| 2026-05-07 12:50 | 36.16066 | 24.35296 | 17265 ft | 348 kts | 196° |
| 2026-05-07 12:50 | 36.13715 | 24.34637 | 16853 ft | 345 kts | 196° |
| 2026-05-07 12:50 | 36.11381 | 24.33987 | 16449 ft | 342 kts | 195° |
| 2026-05-07 12:50 | 36.09066 | 24.33345 | 16049 ft | 340 kts | 195° |
| 2026-05-07 12:51 | 36.06764 | 24.32704 | 15641 ft | 338 kts | 195° |
| 2026-05-07 12:51 | 36.04481 | 24.32064 | 15248 ft | 335 kts | 195° |
| 2026-05-07 12:51 | 36.02248 | 24.31226 | 14559 ft | 339 kts | 210° |
| 2026-05-07 12:51 | 36.00364 | 24.29529 | 14060 ft | 334 kts | 228° |
| 2026-05-07 12:52 | 35.98781 | 24.27443 | 13623 ft | 332 kts | 229° |
| 2026-05-07 12:52 | 35.97210 | 24.25366 | 13219 ft | 329 kts | 229° |
| 2026-05-07 12:52 | 35.95656 | 24.23308 | 12811 ft | 326 kts | 229° |
| 2026-05-07 12:52 | 35.94121 | 24.21269 | 12411 ft | 323 kts | 229° |
| 2026-05-07 12:53 | 35.92596 | 24.19246 | 12008 ft | 321 kts | 229° |
| 2026-05-07 12:53 | 35.91036 | 24.17296 | 11643 ft | 319 kts | 220° |
| 2026-05-07 12:53 | 35.89214 | 24.15772 | 11429 ft | 311 kts | 215° |
| 2026-05-07 12:53 | 35.87429 | 24.14347 | 11277 ft | 301 kts | 215° |
| 2026-05-07 12:54 | 35.85688 | 24.12957 | 10803 ft | 295 kts | 215° |
| 2026-05-07 12:54 | 35.83973 | 24.11584 | 10286 ft | 293 kts | 214° |
| 2026-05-07 12:54 | 35.82272 | 24.10221 | 9723 ft | 291 kts | 214° |
| 2026-05-07 12:54 | 35.80611 | 24.08819 | 9133 ft | 287 kts | 223° |
| 2026-05-07 12:55 | 35.79316 | 24.06988 | 8582 ft | 282 kts | 234° |
| 2026-05-07 12:55 | 35.78158 | 24.05050 | 8027 ft | 280 kts | 235° |
| 2026-05-07 12:55 | 35.77026 | 24.03113 | 7498 ft | 277 kts | 235° |
| 2026-05-07 12:55 | 35.75915 | 24.01194 | 6962 ft | 274 kts | 235° |
| 2026-05-07 12:56 | 35.74787 | 23.99317 | 6408 ft | 271 kts | 227° |
| 2026-05-07 12:56 | 35.73286 | 23.97962 | 5874 ft | 268 kts | 204° |
| 2026-05-07 12:56 | 35.71536 | 23.97210 | 5309 ft | 266 kts | 198° |
| 2026-05-07 12:56 | 35.69799 | 23.96521 | 4966 ft | 255 kts | 197° |
| 2026-05-07 12:57 | 35.68158 | 23.95873 | 4729 ft | 241 kts | 197° |
| 2026-05-07 12:57 | 35.66618 | 23.95267 | 4491 ft | 225 kts | 197° |
| 2026-05-07 12:57 | 35.65171 | 23.94698 | 4255 ft | 213 kts | 198° |
| 2026-05-07 12:57 | 35.63779 | 23.94146 | 4086 ft | 208 kts | 198° |
| 2026-05-07 12:58 | 35.62364 | 23.93789 | 3845 ft | 209 kts | 180° |
| 2026-05-07 12:58 | 35.60980 | 23.94181 | 3560 ft | 200 kts | 156° |
| 2026-05-07 12:58 | 35.59897 | 23.95176 | 3333 ft | 192 kts | 133° |
| 2026-05-07 12:58 | 35.59230 | 23.96548 | 3091 ft | 184 kts | 112° |
| 2026-05-07 12:59 | 35.58768 | 23.97990 | 2849 ft | 179 kts | 112° |
| 2026-05-07 12:59 | 35.58308 | 23.99381 | 2651 ft | 173 kts | 112° |
| 2026-05-07 12:59 | 35.57859 | 24.00734 | 2449 ft | 170 kts | 112° |
| 2026-05-07 12:59 | 35.57416 | 24.02063 | 2368 ft | 168 kts | 112° |
| 2026-05-07 13:00 | 35.56977 | 24.03384 | 2215 ft | 165 kts | 112° |
| 2026-05-07 13:00 | 35.56552 | 24.04656 | 1958 ft | 158 kts | 111° |
| 2026-05-07 13:00 | 35.56145 | 24.05884 | 1714 ft | 150 kts | 111° |
| 2026-05-07 13:00 | 35.55755 | 24.07060 | 1505 ft | 147 kts | 111° |
| 2026-05-07 13:01 | 35.55373 | 24.08209 | 1346 ft | 144 kts | 111° |
| 2026-05-07 13:01 | 35.55018 | 24.09336 | 1170 ft | 142 kts | 111° |
| 2026-05-07 13:01 | 35.54637 | 24.10469 | 980 ft | 141 kts | 111° |
| 2026-05-07 13:01 | 35.54278 | 24.11588 | 823 ft | 141 kts | 111° |
| 2026-05-07 13:02 | 35.53916 | 24.12694 | 648 ft | 141 kts | 111° |
| 2026-05-07 13:02 | 35.53550 | 24.13814 | 503 ft | 134 kts | 110° |
| 2026-05-07 13:02 | 35.53268 | 24.14682 | 491 ft | 81 kts | 111° |
| 2026-05-07 13:02 | 35.53151 | 24.15042 | 487 ft | 15 kts | 112° |
| 2026-05-07 13:03 | 35.53193 | 24.15132 | 482 ft | 12 kts | 25° |
| 2026-05-07 13:03 | 35.53252 | 24.15164 | 486 ft | 7 kts | 23° |
| 2026-05-07 13:03 | 35.53295 | 24.15152 | 491 ft | 10 kts | 308° |
| 2026-05-07 13:03 | 35.53334 | 24.15040 | 489 ft | 19 kts | 292° |
| 2026-05-07 13:04 | 35.53385 | 24.14883 | 493 ft | 20 kts | 292° |
| 2026-05-07 13:04 | 35.53434 | 24.14733 | 490 ft | 19 kts | 291° |
| 2026-05-07 13:04 | 35.53481 | 24.14588 | 490 ft | 18 kts | 291° |
| 2026-05-07 13:04 | 35.53525 | 24.14451 | 498 ft | 17 kts | 291° |
| 2026-05-07 13:05 | 35.53564 | 24.14348 | 494 ft | 8 kts | 317° |
| 2026-05-07 13:05 | 35.53611 | 24.14348 | 498 ft | 7 kts | 16° |
| 2026-05-07 13:05 | 35.53653 | 24.14362 | 498 ft | 6 kts | 3° |
| 2026-05-07 13:05 | 35.53680 | 24.14342 | 488 ft | 4 kts | 308° |
| 2026-05-07 13:06 | 35.53702 | 24.14314 | 492 ft | 6 kts | 336° |
| 2026-05-07 13:06 | 35.53749 | 24.14325 | 498 ft | 7 kts | 20° |
| 2026-05-07 13:06 | 35.53773 | 24.14337 | 498 ft | 1 kts | 21° |
| 2026-05-07 13:06 | 35.53775 | 24.14338 | 498 ft | 0 kts | 22° |